Time;durP1;ratioP1;P1;durP2;ratioP2;P2;SDS_P1;SDS_P2;PMS_P1;PMS_P2;Temp;Humidity;BMP_temperature;BMP_pressure;BME280_temperature;BME280_humidity;BME280_pressure;Samples;Min_cycle;Max_cycle;Signal;HPM_P1;HPM_P2
2023/12/18 00:01:07;;;;;;;0.60;0.60;;;10.30;67.90;;;;;;5081639;28;20028;-71
2023/12/18 00:03:33;;;;;;;0.88;0.88;;;10.30;67.90;;;;;;5073018;28;20024;-71
2023/12/18 00:05:58;;;;;;;1.15;1.15;;;10.30;67.90;;;;;;5073163;28;20138;-71
2023/12/18 00:08:24;;;;;;;0.70;0.70;;;10.30;68.10;;;;;;5072830;28;20025;-71
2023/12/18 00:10:49;;;;;;;1.30;1.20;;;10.40;68.30;;;;;;5078632;28;20032;-71
2023/12/18 00:13:15;;;;;;;1.02;0.93;;;10.40;68.20;;;;;;5093869;28;20028;-71
2023/12/18 00:15:40;;;;;;;0.90;0.90;;;10.30;67.90;;;;;;5090781;28;20047;-71
2023/12/18 00:18:06;;;;;;;0.80;0.80;;;10.30;67.80;;;;;;5094039;28;20028;-71
2023/12/18 00:20:31;;;;;;;0.70;0.70;;;10.30;67.70;;;;;;5094426;28;20039;-71
2023/12/18 00:22:58;;;;;;;0.98;0.98;;;10.30;67.60;;;;;;5093529;28;20031;-71
2023/12/18 00:25:23;;;;;;;0.47;0.47;;;10.30;67.60;;;;;;5094017;28;20050;-71
2023/12/18 00:27:50;;;;;;;0.80;0.80;;;10.30;67.50;;;;;;5085551;28;20475;-71
2023/12/18 00:30:16;;;;;;;1.00;1.00;;;10.30;67.50;;;;;;5073977;28;20025;-71
2023/12/18 00:32:41;;;;;;;0.60;0.60;;;10.20;67.50;;;;;;5073551;28;20390;-69
2023/12/18 00:35:07;;;;;;;0.43;0.43;;;10.20;67.40;;;;;;5073756;28;20031;-71
2023/12/18 00:37:33;;;;;;;0.60;0.60;;;10.20;67.60;;;;;;5075409;28;20126;-69
2023/12/18 00:39:58;;;;;;;0.45;0.45;;;10.30;67.60;;;;;;5093800;28;20061;-71
2023/12/18 00:42:23;;;;;;;0.50;0.50;;;10.20;67.50;;;;;;5093240;28;20081;-72
2023/12/18 00:44:49;;;;;;;0.65;0.65;;;10.20;67.40;;;;;;5093672;28;20107;-70
2023/12/18 00:47:14;;;;;;;0.40;0.40;;;10.20;67.60;;;;;;5093721;28;20036;-70
2023/12/18 00:49:40;;;;;;;0.70;0.70;;;10.20;68.00;;;;;;5093511;28;20058;-70
2023/12/18 00:52:05;;;;;;;1.00;1.00;;;10.30;68.30;;;;;;5092763;28;20131;-70
2023/12/18 00:54:31;;;;;;;0.70;0.70;;;10.40;68.70;;;;;;5054874;28;20044;-70
2023/12/18 00:56:56;;;;;;;1.25;1.15;;;10.50;69.00;;;;;;5076993;28;20037;-70
2023/12/18 00:59:22;;;;;;;0.52;0.52;;;10.60;69.20;;;;;;5090139;28;20071;-71
2023/12/18 01:01:47;;;;;;;0.70;0.70;;;10.60;69.30;;;;;;5090406;28;20087;-70
2023/12/18 01:04:13;;;;;;;0.70;0.70;;;10.70;69.20;;;;;;5073972;28;20029;-70
2023/12/18 01:06:38;;;;;;;0.65;0.65;;;10.80;69.10;;;;;;5073798;28;20574;-70
2023/12/18 01:09:04;;;;;;;0.50;0.50;;;10.90;69.10;;;;;;5079309;28;20036;-70
2023/12/18 01:11:29;;;;;;;0.70;0.70;;;10.90;69.00;;;;;;5088774;28;20047;-70
2023/12/18 01:13:55;;;;;;;1.02;1.02;;;11.00;68.80;;;;;;5084316;28;20040;-70
2023/12/18 01:16:21;;;;;;;0.47;0.47;;;11.00;68.90;;;;;;5092341;28;20042;-70
2023/12/18 01:18:46;;;;;;;1.30;1.23;;;11.00;68.70;;;;;;5093893;28;20391;-70
2023/12/18 01:21:13;;;;;;;0.50;0.50;;;11.10;68.80;;;;;;5094282;28;20483;-70
2023/12/18 01:23:39;;;;;;;0.63;0.63;;;11.10;69.10;;;;;;5094968;28;20529;-70
2023/12/18 01:26:04;;;;;;;0.88;0.88;;;11.20;68.90;;;;;;5094701;28;20025;-70
2023/12/18 01:28:30;;;;;;;0.40;0.40;;;11.20;68.80;;;;;;5094943;28;20039;-70
2023/12/18 01:30:55;;;;;;;0.65;0.65;;;11.20;68.90;;;;;;5098122;28;20522;-70
2023/12/18 01:33:21;;;;;;;0.60;0.60;;;11.20;68.90;;;;;;5097657;28;20068;-70
2023/12/18 01:35:46;;;;;;;0.80;0.80;;;11.30;69.10;;;;;;5097389;28;20432;-70
2023/12/18 01:38:12;;;;;;;0.85;0.85;;;11.30;68.70;;;;;;5096453;28;20028;-70
2023/12/18 01:40:37;;;;;;;0.90;0.90;;;11.30;68.60;;;;;;5096480;28;20047;-68
2023/12/18 01:43:21;;;;;;;0.47;0.47;;;11.30;68.80;;;;;;5093979;28;20062;-67
2023/12/18 01:45:47;;;;;;;0.40;0.40;;;11.30;68.80;;;;;;5094765;28;20036;-68
2023/12/18 01:48:12;;;;;;;0.65;0.65;;;11.30;68.80;;;;;;5093877;28;20047;-67
2023/12/18 01:50:37;;;;;;;0.95;0.95;;;11.40;68.70;;;;;;5093938;28;20483;-68
2023/12/18 01:53:03;;;;;;;1.27;1.17;;;11.40;68.70;;;;;;5094044;28;20059;-68
2023/12/18 01:55:29;;;;;;;0.40;0.40;;;11.40;68.60;;;;;;5097647;28;20463;-68
2023/12/18 01:57:54;;;;;;;0.47;0.47;;;11.40;68.70;;;;;;5070306;28;20032;-69
2023/12/18 02:00:20;;;;;;;0.82;0.82;;;11.40;68.60;;;;;;5093026;28;20155;-68
2023/12/18 02:02:45;;;;;;;2.20;1.48;;;11.40;68.70;;;;;;5093644;28;20369;-68
2023/12/18 02:05:11;;;;;;;0.40;0.40;;;11.40;68.60;;;;;;5093604;28;20190;-69
2023/12/18 02:07:37;;;;;;;0.60;0.60;;;11.40;68.70;;;;;;5093816;28;20129;-69
2023/12/18 02:10:04;;;;;;;0.70;0.70;;;11.40;68.60;;;;;;5094402;28;20038;-69
2023/12/18 02:12:29;;;;;;;1.85;1.20;;;11.40;68.40;;;;;;5090646;28;20509;-69
2023/12/18 02:14:56;;;;;;;0.47;0.47;;;11.40;68.20;;;;;;5081258;28;20111;-69
2023/12/18 02:17:21;;;;;;;0.70;0.70;;;11.40;68.30;;;;;;5093063;28;20042;-68
2023/12/18 02:19:47;;;;;;;1.92;1.25;;;11.40;68.00;;;;;;5093286;28;20433;-69
2023/12/18 02:22:12;;;;;;;1.27;1.08;;;11.40;68.30;;;;;;5073543;28;20036;-69
2023/12/18 02:24:38;;;;;;;0.88;0.88;;;11.40;68.20;;;;;;5092459;28;20028;-69
2023/12/18 02:27:03;;;;;;;0.90;0.90;;;11.40;68.40;;;;;;5100789;28;20487;-69
2023/12/18 02:29:29;;;;;;;0.85;0.85;;;11.40;68.30;;;;;;5093483;28;20379;-69
2023/12/18 02:31:54;;;;;;;1.45;1.35;;;11.40;68.00;;;;;;5093586;28;20050;-69
2023/12/18 02:34:20;;;;;;;0.65;0.65;;;11.30;68.00;;;;;;5101111;28;20070;-69
2023/12/18 02:36:48;;;;;;;1.25;1.20;;;11.30;67.70;;;;;;5090977;28;20422;-69
2023/12/18 02:39:13;;;;;;;0.88;0.88;;;11.30;68.00;;;;;;5091968;28;20498;-69
2023/12/18 02:41:39;;;;;;;1.50;0.82;;;11.30;68.20;;;;;;5092690;28;20162;-69
2023/12/18 02:44:04;;;;;;;1.25;1.20;;;11.30;68.10;;;;;;5093446;28;20021;-69
2023/12/18 02:46:30;;;;;;;4.65;1.95;;;11.30;67.80;;;;;;5092710;28;20487;-69
2023/12/18 02:48:55;;;;;;;0.90;0.90;;;11.30;68.00;;;;;;5093391;28;20514;-69
2023/12/18 02:51:21;;;;;;;0.60;0.60;;;11.30;68.00;;;;;;5094289;28;20044;-71
2023/12/18 02:53:46;;;;;;;0.60;0.60;;;11.20;67.80;;;;;;5094450;28;20507;-71
2023/12/18 02:56:13;;;;;;;0.50;0.50;;;11.20;67.90;;;;;;5094383;28;20107;-71
2023/12/18 02:58:38;;;;;;;0.85;0.85;;;11.20;68.00;;;;;;5094501;28;20025;-69
2023/12/18 03:01:04;;;;;;;1.27;1.23;;;11.20;68.10;;;;;;5076319;28;20422;-70
2023/12/18 03:03:29;;;;;;;0.75;0.75;;;11.20;68.10;;;;;;5077811;28;20163;-69
2023/12/18 03:05:55;;;;;;;0.50;0.50;;;11.20;68.10;;;;;;5074440;28;20032;-70
2023/12/18 03:08:20;;;;;;;1.05;0.95;;;11.20;68.20;;;;;;5073531;28;20020;-69
2023/12/18 03:10:46;;;;;;;0.88;0.88;;;11.20;68.00;;;;;;5094349;28;20055;-70
2023/12/18 03:13:11;;;;;;;1.17;1.15;;;11.10;68.10;;;;;;5095656;28;20034;-71
2023/12/18 03:15:37;;;;;;;0.57;0.57;;;11.10;68.10;;;;;;5086752;28;20093;-70
2023/12/18 03:18:02;;;;;;;1.45;1.35;;;11.10;68.20;;;;;;5076541;28;20384;-70
2023/12/18 03:20:28;;;;;;;1.00;0.93;;;11.10;67.50;;;;;;5079277;28;20028;-70
2023/12/18 03:22:54;;;;;;;1.27;1.15;;;11.10;67.80;;;;;;5097050;28;20443;-70
2023/12/18 03:25:19;;;;;;;0.63;0.63;;;11.10;67.90;;;;;;5096861;28;20163;-70
2023/12/18 03:27:45;;;;;;;1.00;1.00;;;11.00;68.00;;;;;;5078320;28;20050;-70
2023/12/18 03:30:10;;;;;;;1.38;1.27;;;11.10;67.50;;;;;;5096716;28;20090;-70
2023/12/18 03:32:36;;;;;;;1.45;1.35;;;11.00;67.70;;;;;;5096459;28;20034;-70
2023/12/18 03:35:01;;;;;;;1.25;1.15;;;11.00;67.40;;;;;;5088984;28;20043;-70
2023/12/18 03:37:27;;;;;;;1.08;0.98;;;11.00;67.40;;;;;;5096023;28;20028;-70
2023/12/18 03:39:52;;;;;;;0.60;0.60;;;11.00;67.20;;;;;;5095337;28;20050;-70
2023/12/18 03:42:18;;;;;;;0.73;0.73;;;11.00;67.10;;;;;;5093801;28;20097;-70
2023/12/18 03:44:43;;;;;;;0.80;0.80;;;11.00;67.10;;;;;;5094832;28;20048;-71
2023/12/18 03:47:09;;;;;;;0.60;0.60;;;10.90;67.20;;;;;;5084858;28;20020;-70
2023/12/18 03:49:34;;;;;;;0.73;0.73;;;10.90;67.20;;;;;;5095315;28;20070;-70
2023/12/18 03:52:00;;;;;;;0.80;0.80;;;10.90;67.10;;;;;;5091471;28;20115;-70
2023/12/18 03:54:25;;;;;;;0.70;0.70;;;10.90;67.40;;;;;;5092880;28;20050;-70
2023/12/18 03:56:51;;;;;;;0.77;0.77;;;10.90;67.50;;;;;;5092729;28;20040;-70
2023/12/18 03:59:16;;;;;;;2.67;1.88;;;10.90;67.40;;;;;;5092931;28;20455;-70
2023/12/18 04:01:42;;;;;;;1.10;1.02;;;10.90;67.50;;;;;;5093040;28;20039;-70
2023/12/18 04:04:08;;;;;;;0.50;0.50;;;11.00;67.50;;;;;;5090989;28;20440;-70
2023/12/18 04:06:34;;;;;;;0.85;0.85;;;10.90;67.60;;;;;;5093127;28;20036;-70
2023/12/18 04:09:00;;;;;;;0.70;0.70;;;11.00;67.40;;;;;;5088366;28;20051;-70
2023/12/18 04:11:25;;;;;;;3.50;3.10;;;11.00;67.40;;;;;;5093088;28;20364;-70
2023/12/18 04:13:51;;;;;;;0.60;0.60;;;11.00;67.20;;;;;;5092131;28;20032;-70
2023/12/18 04:16:17;;;;;;;2.05;1.20;;;10.90;67.20;;;;;;5090727;28;20090;-70
2023/12/18 04:18:42;;;;;;;1.23;1.10;;;11.00;67.60;;;;;;5093654;28;20024;-70
2023/12/18 04:21:08;;;;;;;0.70;0.70;;;11.00;67.70;;;;;;5093521;28;20024;-70
2023/12/18 04:23:33;;;;;;;0.80;0.80;;;11.00;67.50;;;;;;5109050;28;20027;-70
2023/12/18 04:25:59;;;;;;;0.70;0.70;;;11.00;67.60;;;;;;5089022;28;20036;-70
2023/12/18 04:28:24;;;;;;;1.05;1.05;;;11.00;67.40;;;;;;5093026;28;20387;-70
2023/12/18 04:30:50;;;;;;;0.70;0.70;;;11.00;67.50;;;;;;5092837;28;20487;-70
2023/12/18 04:33:15;;;;;;;5.57;1.35;;;11.00;67.40;;;;;;5100113;28;20065;-70
2023/12/18 04:35:41;;;;;;;7.88;1.58;;;11.00;67.30;;;;;;5092663;28;20440;-70
2023/12/18 04:38:07;;;;;;;2.05;1.13;;;11.00;67.50;;;;;;5092906;28;20031;-70
2023/12/18 04:40:33;;;;;;;0.85;0.85;;;11.00;67.50;;;;;;5102341;28;20020;-70
2023/12/18 04:42:58;;;;;;;1.30;1.20;;;11.00;67.50;;;;;;5093039;28;20032;-71
2023/12/18 04:45:24;;;;;;;3.92;1.13;;;11.00;67.40;;;;;;5097912;28;20119;-70
2023/12/18 04:47:49;;;;;;;0.50;0.50;;;11.00;67.60;;;;;;5092513;28;20069;-70
2023/12/18 04:50:15;;;;;;;2.08;1.95;;;11.00;67.60;;;;;;5092521;28;20074;-70
2023/12/18 04:52:41;;;;;;;1.05;1.05;;;11.00;67.60;;;;;;5075225;28;20460;-70
2023/12/18 04:55:07;;;;;;;0.57;0.57;;;11.00;67.40;;;;;;5093371;28;20028;-70
2023/12/18 04:57:33;;;;;;;1.52;1.42;;;11.10;66.70;;;;;;5091884;28;20493;-70
2023/12/18 04:59:58;;;;;;;0.73;0.73;;;11.00;67.00;;;;;;5070152;28;20469;-70
2023/12/18 05:02:24;;;;;;;0.90;0.90;;;11.00;67.30;;;;;;5081721;28;20032;-71
2023/12/18 05:04:49;;;;;;;1.15;1.13;;;11.00;67.00;;;;;;5095502;28;20491;-70
2023/12/18 05:07:15;;;;;;;1.13;1.10;;;11.00;67.00;;;;;;5083685;28;20066;-70
2023/12/18 05:09:40;;;;;;;0.63;0.63;;;11.00;67.10;;;;;;5077416;28;20054;-70
2023/12/18 05:12:06;;;;;;;0.50;0.50;;;11.00;67.30;;;;;;5076689;28;20492;-70
2023/12/18 05:14:32;;;;;;;1.00;0.95;;;11.00;67.30;;;;;;5079264;28;20032;-70
2023/12/18 05:16:58;;;;;;;1.38;1.27;;;11.10;67.20;;;;;;5094734;28;20384;-70
2023/12/18 05:19:24;;;;;;;1.75;1.65;;;11.00;67.20;;;;;;5091261;28;20520;-70
2023/12/18 05:21:49;;;;;;;1.38;1.27;;;11.00;67.40;;;;;;5076330;28;20081;-70
2023/12/18 05:24:15;;;;;;;0.80;0.80;;;11.10;67.50;;;;;;5076572;28;20078;-70
2023/12/18 05:26:41;;;;;;;0.88;0.88;;;11.00;67.30;;;;;;5075905;28;20024;-70
2023/12/18 05:29:06;;;;;;;0.60;0.60;;;11.00;67.40;;;;;;5075804;28;20042;-70
2023/12/18 05:31:31;;;;;;;0.60;0.60;;;11.00;67.40;;;;;;5079954;28;20040;-70
2023/12/18 05:33:58;;;;;;;0.70;0.70;;;11.00;67.40;;;;;;5091137;28;20443;-70
2023/12/18 05:36:23;;;;;;;0.65;0.65;;;11.00;67.00;;;;;;5090981;28;20033;-70
2023/12/18 05:38:48;;;;;;;2.13;1.95;;;11.10;66.80;;;;;;5075523;28;20420;-70
2023/12/18 05:41:14;;;;;;;0.65;0.65;;;11.00;67.10;;;;;;5075823;28;20071;-70
2023/12/18 05:43:40;;;;;;;0.90;0.90;;;11.00;67.20;;;;;;5075363;28;20082;-70
2023/12/18 05:46:09;;;;;;;0.75;0.73;;;11.00;67.10;;;;;;5075471;28;20024;-70
2023/12/18 05:48:34;;;;;;;0.88;0.88;;;11.00;66.90;;;;;;5078655;28;20035;-70
2023/12/18 05:51:00;;;;;;;1.10;0.98;;;10.90;67.10;;;;;;5094328;28;20028;-70
2023/12/18 05:53:25;;;;;;;2.10;1.50;;;11.00;66.90;;;;;;5094699;28;20024;-70
2023/12/18 05:55:51;;;;;;;0.88;0.88;;;11.00;67.00;;;;;;5095129;28;20040;-70
2023/12/18 05:58:16;;;;;;;1.63;1.38;;;10.90;66.90;;;;;;5094608;28;20474;-69
2023/12/18 06:00:41;;;;;;;0.70;0.70;;;10.90;66.90;;;;;;5076863;28;20025;-70
2023/12/18 06:03:07;;;;;;;0.90;0.90;;;10.90;66.70;;;;;;5094762;28;20043;-69
2023/12/18 06:05:32;;;;;;;0.90;0.90;;;10.90;66.80;;;;;;5095271;28;20456;-69
2023/12/18 06:07:58;;;;;;;1.38;1.27;;;11.00;66.90;;;;;;5094055;28;20036;-69
2023/12/18 06:10:23;;;;;;;0.85;0.85;;;10.90;66.90;;;;;;5093572;28;20024;-69
2023/12/18 06:12:51;;;;;;;2.95;1.55;;;10.90;67.30;;;;;;5094643;28;20068;-70
2023/12/18 06:15:16;;;;;;;0.85;0.85;;;11.00;67.20;;;;;;5093757;28;20066;-70
2023/12/18 06:17:42;;;;;;;1.08;1.05;;;11.00;67.30;;;;;;5087611;28;20049;-70
2023/12/18 06:20:10;;;;;;;1.45;1.35;;;11.00;67.30;;;;;;5086199;28;20039;-70
2023/12/18 06:22:36;;;;;;;2.05;1.85;;;11.00;67.40;;;;;;5093636;28;20032;-70
2023/12/18 06:25:05;;;;;;;3.03;1.50;;;11.00;67.40;;;;;;5096285;28;20380;-70
2023/12/18 06:27:30;;;;;;;1.58;1.48;;;11.00;67.50;;;;;;5096253;28;20044;-69
2023/12/18 06:29:56;;;;;;;0.73;0.73;;;11.00;67.20;;;;;;5091722;28;20038;-70
2023/12/18 06:32:21;;;;;;;1.40;1.30;;;11.00;67.40;;;;;;5091389;28;20036;-70
2023/12/18 06:34:49;;;;;;;1.90;1.80;;;11.00;67.50;;;;;;5091664;28;20035;-70
2023/12/18 06:37:15;;;;;;;0.75;0.75;;;11.00;67.40;;;;;;5091753;28;20031;-69
2023/12/18 06:39:40;;;;;;;1.02;1.00;;;11.00;67.30;;;;;;5092780;28;20032;-69
2023/12/18 06:42:06;;;;;;;0.95;0.90;;;11.00;67.10;;;;;;5092893;28;20433;-69
2023/12/18 06:44:31;;;;;;;1.90;1.80;;;11.00;67.40;;;;;;5093782;28;20031;-69
2023/12/18 06:46:57;;;;;;;0.70;0.70;;;11.00;67.30;;;;;;5091971;28;20113;-70
2023/12/18 06:49:22;;;;;;;2.30;2.00;;;11.00;67.40;;;;;;5092464;28;20471;-71
2023/12/18 06:51:50;;;;;;;1.52;1.42;;;11.00;67.50;;;;;;5093879;28;20406;-70
2023/12/18 06:54:16;;;;;;;0.70;0.70;;;11.00;67.60;;;;;;5093359;28;20043;-69
2023/12/18 06:56:42;;;;;;;0.60;0.60;;;11.00;67.20;;;;;;5093404;28;20509;-70
2023/12/18 06:59:07;;;;;;;2.75;1.23;;;11.00;67.20;;;;;;5094416;28;20107;-71
2023/12/18 07:01:33;;;;;;;1.95;1.83;;;11.00;67.00;;;;;;5095469;28;20042;-71
2023/12/18 07:03:59;;;;;;;0.90;0.90;;;11.00;67.00;;;;;;5094667;28;20030;-70
2023/12/18 07:06:24;;;;;;;1.42;1.13;;;11.00;67.20;;;;;;5089740;28;20034;-70
2023/12/18 07:08:49;;;;;;;1.95;1.67;;;10.90;67.40;;;;;;5091399;28;20032;-70
2023/12/18 07:11:15;;;;;;;0.90;0.90;;;11.00;67.30;;;;;;5088453;28;20060;-70
2023/12/18 07:13:40;;;;;;;0.60;0.60;;;10.90;67.30;;;;;;5071424;28;20055;-70
2023/12/18 07:16:06;;;;;;;0.70;0.70;;;10.90;67.20;;;;;;5087024;28;20544;-70
2023/12/18 07:18:32;;;;;;;0.80;0.80;;;11.00;67.40;;;;;;5092664;28;20111;-70
2023/12/18 07:20:57;;;;;;;1.50;1.40;;;10.90;67.20;;;;;;5093921;28;20081;-70
2023/12/18 07:23:23;;;;;;;0.82;0.82;;;11.00;67.20;;;;;;5091442;28;20023;-70
2023/12/18 07:25:48;;;;;;;0.90;0.90;;;11.00;67.10;;;;;;5086328;28;20039;-69
2023/12/18 07:28:14;;;;;;;1.42;1.33;;;10.90;66.90;;;;;;5089425;28;20054;-69
2023/12/18 07:30:40;;;;;;;2.17;1.67;;;10.90;67.40;;;;;;5093062;28;20430;-68
2023/12/18 07:33:05;;;;;;;1.25;1.25;;;10.90;67.50;;;;;;5089900;28;20545;-68
2023/12/18 07:35:31;;;;;;;1.40;1.30;;;11.00;67.50;;;;;;5087805;28;20828;-68
2023/12/18 07:37:57;;;;;;;0.77;0.77;;;11.00;67.30;;;;;;5084829;28;20384;-68
2023/12/18 07:40:22;;;;;;;3.22;1.85;;;11.00;66.90;;;;;;5082603;28;20024;-68
2023/12/18 07:42:48;;;;;;;0.68;0.68;;;11.00;67.20;;;;;;5068708;28;20504;-68
2023/12/18 07:45:13;;;;;;;1.30;1.20;;;11.00;67.40;;;;;;5088946;28;20028;-69
2023/12/18 07:47:41;;;;;;;1.65;1.10;;;11.00;67.10;;;;;;5067128;28;20063;-68
2023/12/18 07:50:07;;;;;;;1.55;1.45;;;11.00;67.10;;;;;;5088132;28;20020;-69
2023/12/18 07:52:33;;;;;;;2.63;1.73;;;11.00;67.30;;;;;;5083860;28;20044;-68
2023/12/18 07:54:58;;;;;;;1.80;1.70;;;11.00;66.90;;;;;;5084234;28;20564;-68
2023/12/18 07:57:24;;;;;;;9.52;3.10;;;11.00;67.60;;;;;;5084589;28;20055;-69
2023/12/18 07:59:49;;;;;;;1.38;1.27;;;11.00;67.40;;;;;;5089080;28;20032;-68
2023/12/18 08:02:15;;;;;;;0.98;0.98;;;11.00;67.50;;;;;;5086809;28;20024;-68
2023/12/18 08:04:40;;;;;;;3.63;1.65;;;11.00;67.60;;;;;;5082265;28;20727;-68
2023/12/18 08:07:06;;;;;;;0.95;0.90;;;11.10;67.60;;;;;;5087549;28;20044;-69
2023/12/18 08:09:31;;;;;;;1.35;1.25;;;11.10;67.70;;;;;;5080912;28;20409;-68
2023/12/18 08:11:57;;;;;;;1.70;1.60;;;11.10;67.70;;;;;;5086950;28;20391;-68
2023/12/18 08:14:22;;;;;;;0.77;0.77;;;11.10;67.60;;;;;;5086441;28;20024;-69
2023/12/18 08:16:49;;;;;;;1.90;1.35;;;11.10;67.80;;;;;;5079013;28;20484;-68
2023/12/18 08:19:15;;;;;;;0.88;0.88;;;11.10;67.50;;;;;;5080847;28;20023;-69
2023/12/18 08:21:40;;;;;;;0.75;0.75;;;11.10;67.50;;;;;;5069227;28;20089;-69
2023/12/18 08:24:06;;;;;;;0.95;0.95;;;11.20;67.70;;;;;;5083258;28;20047;-69
2023/12/18 08:26:31;;;;;;;0.60;0.60;;;11.20;67.80;;;;;;5087208;28;20036;-68
2023/12/18 08:28:57;;;;;;;1.00;1.00;;;11.20;68.00;;;;;;5077281;28;20032;-68
2023/12/18 08:31:23;;;;;;;1.30;1.20;;;11.20;67.80;;;;;;5084401;28;20543;-69
2023/12/18 08:33:48;;;;;;;2.35;1.35;;;11.20;67.60;;;;;;5089282;28;20032;-67
2023/12/18 08:36:14;;;;;;;0.93;0.93;;;11.20;67.60;;;;;;5088025;28;20077;-67
2023/12/18 08:38:39;;;;;;;1.65;0.75;;;11.20;67.60;;;;;;5062698;28;20036;-68
2023/12/18 08:41:05;;;;;;;1.48;1.38;;;11.30;67.40;;;;;;5089591;28;20376;-68
2023/12/18 08:43:31;;;;;;;1.48;1.38;;;11.20;67.20;;;;;;5082387;28;20030;-69
2023/12/18 08:45:57;;;;;;;0.52;0.52;;;11.20;67.30;;;;;;5089173;28;20028;-71
2023/12/18 08:48:22;;;;;;;0.60;0.60;;;11.30;66.90;;;;;;5078174;28;20039;-69
2023/12/18 08:50:48;;;;;;;0.57;0.57;;;11.20;67.10;;;;;;5087243;28;20084;-67
2023/12/18 08:53:13;;;;;;;0.50;0.50;;;11.20;67.60;;;;;;5088791;28;20418;-68
2023/12/18 08:55:39;;;;;;;0.98;0.98;;;11.30;67.30;;;;;;5089567;28;20028;-68
2023/12/18 08:58:08;;;;;;;1.02;1.02;;;11.30;66.80;;;;;;5081080;28;20032;-68
2023/12/18 09:00:34;;;;;;;0.50;0.50;;;11.20;67.10;;;;;;5082189;28;20024;-68
2023/12/18 09:03:00;;;;;;;0.95;0.95;;;11.20;67.10;;;;;;5090305;28;20365;-68
2023/12/18 09:05:25;;;;;;;1.92;1.38;;;11.20;67.50;;;;;;5085900;28;20025;-68
2023/12/18 09:07:51;;;;;;;0.70;0.70;;;11.20;67.60;;;;;;5084846;28;20032;-68
2023/12/18 09:10:22;;;;;;;1.75;1.63;;;11.20;67.70;;;;;;5084226;28;20037;-68
2023/12/18 09:12:48;;;;;;;;;;;11.20;67.80;;;;;;5079954;28;20475;-68
2023/12/18 09:15:13;;;;;;;1.08;1.08;;;11.30;67.40;;;;;;5083352;28;19908;-68
2023/12/18 09:17:39;;;;;;;0.70;0.70;;;11.20;66.90;;;;;;5084470;28;20452;-68
2023/12/18 09:20:05;;;;;;;0.50;0.50;;;11.20;67.40;;;;;;5088582;28;20031;-68
2023/12/18 09:22:30;;;;;;;1.30;1.23;;;11.20;67.30;;;;;;5090869;28;20471;-69
2023/12/18 09:24:56;;;;;;;4.70;2.40;;;11.10;67.10;;;;;;5087861;28;20046;-69
2023/12/18 09:27:21;;;;;;;3.78;3.15;;;11.20;67.30;;;;;;5087843;28;20492;-69
2023/12/18 09:29:47;;;;;;;0.82;0.82;;;11.20;67.10;;;;;;5083567;28;20024;-69
2023/12/18 09:32:12;;;;;;;1.30;1.20;;;11.20;66.60;;;;;;5086534;28;20502;-69
2023/12/18 09:34:38;;;;;;;1.48;1.38;;;11.20;66.80;;;;;;5081099;28;20063;-69
2023/12/18 09:37:03;;;;;;;1.02;0.88;;;11.20;67.00;;;;;;5063864;28;20054;-70
2023/12/18 09:39:30;;;;;;;0.85;0.85;;;11.20;66.70;;;;;;5083460;28;20016;-69
2023/12/18 09:42:01;;;;;;;0.75;0.75;;;11.20;66.50;;;;;;5079831;28;20036;-69
2023/12/18 09:44:29;;;;;;;;;;;11.20;66.90;;;;;;5089703;28;20020;-69
2023/12/18 09:46:56;;;;;;;0.68;0.68;;;11.20;66.60;;;;;;5083506;28;19919;-69
2023/12/18 09:49:22;;;;;;;4.68;1.75;;;11.20;66.40;;;;;;5088090;28;20059;-69
2023/12/18 09:51:52;;;;;;;1.13;1.13;;;11.20;66.70;;;;;;5093758;28;20040;-69
2023/12/18 09:54:18;;;;;;;1.30;1.20;;;11.20;67.00;;;;;;5093540;28;20028;-69
2023/12/18 09:56:48;;;;;;;0.77;0.77;;;11.20;66.90;;;;;;5083970;28;20035;-68
2023/12/18 09:59:14;;;;;;;0.77;0.77;;;11.30;66.60;;;;;;5075310;28;20042;-69
2023/12/18 10:01:40;;;;;;;1.65;1.55;;;11.30;66.70;;;;;;5074646;28;20016;-69
2023/12/18 10:04:06;;;;;;;1.17;1.15;;;11.40;66.90;;;;;;5080554;28;20127;-69
2023/12/18 10:06:31;;;;;;;0.60;0.60;;;11.40;66.80;;;;;;5083006;28;20497;-69
2023/12/18 10:08:57;;;;;;;1.67;1.58;;;11.50;67.10;;;;;;5084699;28;20024;-69
2023/12/18 10:11:25;;;;;;;2.80;1.85;;;11.60;67.30;;;;;;5074197;28;20045;-69
2023/12/18 10:13:53;;;;;;;0.60;0.60;;;11.70;66.90;;;;;;5066494;28;20039;-69
2023/12/18 10:16:19;;;;;;;0.43;0.43;;;11.80;67.60;;;;;;5082505;28;20029;-69
2023/12/18 10:18:45;;;;;;;0.68;0.68;;;11.90;67.40;;;;;;5086215;28;20035;-69
2023/12/18 10:21:11;;;;;;;1.35;1.25;;;12.00;67.50;;;;;;5089810;28;20483;-69
2023/12/18 10:23:38;;;;;;;0.65;0.65;;;12.10;66.80;;;;;;5094246;28;20481;-69
2023/12/18 10:26:04;;;;;;;0.63;0.63;;;12.10;66.40;;;;;;5093330;28;20028;-69
2023/12/18 10:28:29;;;;;;;1.45;1.35;;;12.10;65.90;;;;;;5085500;28;20842;-69
2023/12/18 10:30:56;;;;;;;1.75;1.42;;;12.00;66.10;;;;;;5082878;28;20043;-69
2023/12/18 10:33:25;;;;;;;0.77;0.77;;;12.00;65.80;;;;;;5078466;28;20037;-69
2023/12/18 10:35:52;;;;;;;0.57;0.57;;;12.00;65.80;;;;;;5091343;28;20526;-69
2023/12/18 10:38:21;;;;;;;0.77;0.77;;;12.00;66.00;;;;;;5078878;28;20017;-69
2023/12/18 10:40:49;;;;;;;1.35;1.25;;;12.00;65.30;;;;;;5083307;28;20483;-69
2023/12/18 10:43:23;;;;;;;0.80;0.80;;;11.90;65.40;;;;;;5090903;28;20038;-69
2023/12/18 10:45:52;;;;;;;1.27;1.17;;;11.80;65.60;;;;;;5093740;28;20480;-69
2023/12/18 10:48:18;;;;;;;1.85;0.75;;;11.80;65.40;;;;;;5085535;28;20559;-69
2023/12/18 10:50:45;;;;;;;1.15;1.10;;;11.80;65.70;;;;;;5091422;28;20440;-69
2023/12/18 10:53:17;;;;;;;2.30;1.63;;;11.80;65.90;;;;;;5072827;28;20074;-69
2023/12/18 10:55:42;;;;;;;0.80;0.80;;;11.80;66.10;;;;;;5087527;28;20056;-69
2023/12/18 10:58:10;;;;;;;1.63;1.48;;;11.80;65.60;;;;;;5075540;28;20141;-69
2023/12/18 11:00:37;;;;;;;1.45;1.40;;;11.80;65.90;;;;;;5082372;28;20027;-68
2023/12/18 11:03:03;;;;;;;0.73;0.73;;;11.80;66.00;;;;;;5092367;28;20513;-69
2023/12/18 11:05:31;;;;;;;0.50;0.50;;;11.80;66.40;;;;;;5092434;28;20107;-68
2023/12/18 11:07:57;;;;;;;1.52;1.42;;;11.80;65.80;;;;;;5086376;28;20454;-68
2023/12/18 11:10:24;;;;;;;0.70;0.70;;;11.80;65.70;;;;;;5090465;28;20060;-68
2023/12/18 11:12:56;;;;;;;0.80;0.80;;;11.80;66.00;;;;;;5086155;28;20055;-68
2023/12/18 11:15:40;;;;;;;0.70;0.70;;;11.80;65.60;;;;;;5092802;28;20128;-68
2023/12/18 11:18:25;;;;;;;0.68;0.68;;;11.70;66.00;;;;;;5082568;28;20044;-69
2023/12/18 11:20:52;;;;;;;0.55;0.55;;;11.70;66.10;;;;;;5072056;28;20115;-68
2023/12/18 11:23:17;;;;;;;1.40;1.30;;;11.80;66.30;;;;;;5089134;28;20031;-69
2023/12/18 11:25:48;;;;;;;0.90;0.90;;;11.80;66.40;;;;;;5091748;28;20035;-68
2023/12/18 11:28:15;;;;;;;1.83;1.15;;;11.80;66.70;;;;;;5084945;28;20028;-69
2023/12/18 11:30:42;;;;;;;0.68;0.68;;;11.80;66.80;;;;;;5074020;28;20036;-69
2023/12/18 11:33:10;;;;;;;0.98;0.98;;;11.80;66.50;;;;;;5083393;28;20020;-69
2023/12/18 11:35:37;;;;;;;0.70;0.70;;;11.80;66.10;;;;;;5092230;28;20028;-68
2023/12/18 11:38:08;;;;;;;1.42;1.33;;;11.80;65.80;;;;;;5085904;28;20539;-69
2023/12/18 11:40:39;;;;;;;0.73;0.73;;;11.80;66.30;;;;;;5073738;28;20024;-68
2023/12/18 11:43:12;;;;;;;0.55;0.55;;;11.80;66.40;;;;;;5091454;28;20036;-68
2023/12/18 11:45:40;;;;;;;0.52;0.52;;;11.80;65.50;;;;;;5092018;28;20040;-69
2023/12/18 11:48:07;;;;;;;1.02;1.02;;;11.80;65.90;;;;;;5083761;28;20028;-69
2023/12/18 11:50:36;;;;;;;1.30;1.23;;;11.80;66.10;;;;;;5086584;28;20036;-68
2023/12/18 11:53:05;;;;;;;0.98;0.98;;;11.70;66.00;;;;;;5091672;28;20093;-68
2023/12/18 11:55:40;;;;;;;0.40;0.40;;;11.70;66.30;;;;;;5091767;28;20036;-68
2023/12/18 11:58:07;;;;;;;2.63;1.90;;;11.80;66.60;;;;;;5091018;28;20024;-69
2023/12/18 12:00:35;;;;;;;1.20;1.10;;;11.80;66.40;;;;;;5071822;28;20048;-69
2023/12/18 12:03:01;;;;;;;0.88;0.88;;;11.80;66.80;;;;;;5071385;28;20052;-70
2023/12/18 12:05:29;;;;;;;0.68;0.68;;;11.90;66.60;;;;;;5091870;28;20032;-67
2023/12/18 12:07:55;;;;;;;0.80;0.80;;;11.90;66.80;;;;;;5091359;28;20028;-67
2023/12/18 12:10:20;;;;;;;0.55;0.55;;;12.00;66.80;;;;;;5091419;28;20465;-69
2023/12/18 12:12:56;;;;;;;3.08;1.30;;;12.10;66.90;;;;;;5088779;28;20035;-67
2023/12/18 12:15:24;;;;;;;0.60;0.60;;;12.10;66.90;;;;;;5091776;28;20097;-69
2023/12/18 12:18:10;;;;;;;0.95;0.95;;;12.20;66.80;;;;;;5084345;28;20063;-69
2023/12/18 12:20:35;;;;;;;1.63;1.40;;;12.20;67.00;;;;;;5070269;28;20446;-68
2023/12/18 12:23:00;;;;;;;1.75;1.65;;;12.30;66.80;;;;;;5070669;28;20024;-68
2023/12/18 12:25:26;;;;;;;0.60;0.60;;;12.30;66.50;;;;;;5083403;28;20043;-69
2023/12/18 12:27:52;;;;;;;1.60;1.50;;;12.30;66.50;;;;;;5079105;28;20044;-69
2023/12/18 12:30:18;;;;;;;5.40;1.60;;;12.30;67.00;;;;;;5070270;28;20479;-67
2023/12/18 12:32:46;;;;;;;3.63;2.15;;;12.40;66.70;;;;;;5075789;28;20027;-67
2023/12/18 12:35:12;;;;;;;1.55;1.45;;;12.40;67.00;;;;;;5091215;28;20445;-67
2023/12/18 12:37:37;;;;;;;1.38;1.27;;;12.50;67.30;;;;;;5090222;28;20599;-68
2023/12/18 12:40:07;;;;;;;1.33;1.23;;;12.50;67.20;;;;;;5090544;28;20036;-67
2023/12/18 12:42:36;;;;;;;1.55;1.45;;;12.60;66.40;;;;;;5090821;28;20020;-68